createdAt,value
2023-03-17T00:02:10.286Z,101519.59
2023-03-17T00:07:18.238Z,101524.46
2023-03-17T00:12:24.854Z,101526.71
2023-03-17T00:17:30.299Z,101531.46
2023-03-17T00:22:35.950Z,101528.41
2023-03-17T00:27:41.448Z,101522.79
2023-03-17T00:32:47.463Z,101514.88
2023-03-17T00:37:55.432Z,101511.76
2023-03-17T00:43:05.258Z,101511.33
2023-03-17T00:48:15.972Z,101505.94
2023-03-17T00:53:22.431Z,101498.94
2023-03-17T00:58:35.380Z,101499.91
2023-03-17T01:03:41.747Z,101500.11
2023-03-17T01:08:47.849Z,101497.64
2023-03-17T01:13:53.834Z,101496.26
2023-03-17T01:18:59.319Z,101490.60
2023-03-17T01:24:05.839Z,101490.23
2023-03-17T01:29:11.422Z,101487.77
2023-03-17T01:34:16.964Z,101478.16
2023-03-17T01:39:22.419Z,101481.16
2023-03-17T01:44:28.327Z,101479.23
2023-03-17T01:49:38.225Z,101481.72
2023-03-17T01:54:48.298Z,101483.58
2023-03-17T01:59:58.383Z,101490.42
2023-03-17T02:05:05.957Z,101498.30
2023-03-17T02:10:13.932Z,101495.95
2023-03-17T02:15:19.835Z,101500.27
2023-03-17T02:21:23.115Z,101499.94
2023-03-17T02:26:31.547Z,101500.69
2023-03-17T02:31:37.321Z,101504.45
2023-03-17T02:36:42.986Z,101509.36
2023-03-17T02:41:48.570Z,101509.27
2023-03-17T02:46:54.179Z,101506.34
2023-03-17T02:51:59.878Z,101504.28
2023-03-17T02:57:08.524Z,101508.66
2023-03-17T03:02:14.339Z,101515.70
2023-03-17T03:07:20.188Z,101527.98
2023-03-17T03:12:26.530Z,101532.17
2023-03-17T03:17:32.119Z,101537.24
2023-03-17T03:22:37.978Z,101538.56
2023-03-17T03:27:43.594Z,101543.81
2023-03-17T03:32:49.685Z,101549.05
2023-03-17T03:37:55.197Z,101553.39
2023-03-17T03:43:07.477Z,101553.08
2023-03-17T03:48:19.269Z,101558.96
2023-03-17T03:53:24.943Z,101560.00
2023-03-17T03:58:30.721Z,101558.44
2023-03-17T04:03:36.833Z,101547.53
2023-03-17T04:08:42.303Z,101544.51
2023-03-17T04:13:47.924Z,101543.73
2023-03-17T04:18:53.638Z,101538.48
2023-03-17T04:23:59.073Z,101543.27
2023-03-17T04:29:04.847Z,101549.02
2023-03-17T04:34:15.240Z,101553.59
2023-03-17T04:39:20.912Z,101550.99
2023-03-17T04:44:26.258Z,101558.52
2023-03-17T04:49:31.902Z,101566.69
2023-03-17T04:54:37.954Z,101569.83
2023-03-17T04:59:43.480Z,101569.16
2023-03-17T05:04:49.019Z,101563.16
2023-03-17T05:09:54.460Z,101544.88
2023-03-17T05:15:00.651Z,101552.01
2023-03-17T05:20:08.502Z,101558.14
2023-03-17T05:25:13.867Z,101564.71
2023-03-17T05:30:19.573Z,101575.34
2023-03-17T05:35:24.964Z,101585.85
2023-03-17T05:40:30.899Z,101585.39
2023-03-17T05:45:37.176Z,101585.39
2023-03-17T05:50:42.803Z,101595.31
2023-03-17T05:55:48.310Z,101601.30
2023-03-17T06:00:53.760Z,101600.77
2023-03-17T06:05:59.202Z,101611.45
2023-03-17T06:11:04.713Z,101605.13
2023-03-17T06:16:10.584Z,101606.98
2023-03-17T06:21:16.275Z,101596.07
2023-03-17T06:26:21.887Z,101583.56
2023-03-17T06:31:27.946Z,101583.33
2023-03-17T06:36:38.227Z,101579.95
2023-03-17T06:41:49.340Z,101587.11
2023-03-17T06:46:55.722Z,101586.58
2023-03-17T06:52:01.401Z,101596.55
2023-03-17T06:57:07.077Z,101591.77
2023-03-17T07:02:13.332Z,101596.61
2023-03-17T07:07:20.813Z,101601.14
2023-03-17T07:12:27.180Z,101601.02
2023-03-17T07:17:33.719Z,101597.61
2023-03-17T07:22:39.450Z,101592.83
2023-03-17T07:27:45.002Z,101583.02
2023-03-17T07:32:50.491Z,101574.40
2023-03-17T07:37:55.945Z,101568.55
2023-03-17T07:43:01.651Z,101560.96
2023-03-17T07:48:08.419Z,101559.38
2023-03-17T07:53:14.408Z,101552.08
2023-03-17T07:58:20.292Z,101553.73
2023-03-17T08:03:26.171Z,101553.86
2023-03-17T08:08:32.593Z,101555.02
2023-03-17T08:13:38.222Z,101538.96
2023-03-17T08:18:43.839Z,101544.72
2023-03-17T08:23:49.453Z,101536.38
2023-03-17T08:28:54.981Z,101537.30
2023-03-17T08:34:02.703Z,101548.23
2023-03-17T08:39:09.469Z,101556.27
2023-03-17T08:44:15.439Z,101554.00
2023-03-17T08:49:21.846Z,101560.75
2023-03-17T08:54:27.890Z,101567.64
2023-03-17T08:59:33.598Z,101578.31
2023-03-17T09:04:40.297Z,101569.49
2023-03-17T09:09:46.366Z,101572.52
2023-03-17T09:14:51.895Z,101567.54
2023-03-17T09:19:57.528Z,101570.13
2023-03-17T09:25:03.792Z,101567.38
2023-03-17T09:30:13.519Z,101567.45
2023-03-17T09:35:19.363Z,101572.37
2023-03-17T09:40:35.919Z,101565.61
2023-03-17T09:45:43.801Z,101561.02
2023-03-17T09:50:57.675Z,101545.50
2023-03-17T09:56:12.333Z,101540.73
2023-03-17T10:01:18.515Z,101534.89
2023-03-17T10:06:36.881Z,101529.64
2023-03-17T10:11:46.762Z,101515.02
2023-03-17T10:16:58.717Z,101512.40
2023-03-17T10:22:14.501Z,101508.93
2023-03-17T10:27:21.627Z,101504.05
2023-03-17T10:32:41.647Z,101496.80
2023-03-17T10:37:48.409Z,101482.64
2023-03-17T10:43:07.801Z,101483.12
2023-03-17T10:48:20.108Z,101475.70
2023-03-17T10:53:29.483Z,101469.06
2023-03-17T10:58:50.055Z,101478.54
2023-03-17T11:04:02.795Z,101471.96
2023-03-17T11:09:10.975Z,101470.63
2023-03-17T11:14:18.982Z,101468.13
2023-03-17T11:19:43.792Z,101464.72
2023-03-17T11:24:59.579Z,101467.40
2023-03-17T11:30:22.161Z,101461.52
2023-03-17T11:35:44.075Z,101455.12
2023-03-17T11:41:21.072Z,101447.21
2023-03-17T11:46:34.337Z,101442.47
2023-03-17T11:51:53.149Z,101443.06
2023-03-17T11:57:01.290Z,101423.26
2023-03-17T12:02:21.610Z,101415.34
2023-03-17T12:07:37.004Z,101400.30
2023-03-17T12:12:49.984Z,101391.36
2023-03-17T12:18:02.824Z,101391.17
2023-03-17T12:23:16.573Z,101381.02
2023-03-17T12:28:27.797Z,101385.44
2023-03-17T12:33:40.635Z,101384.52
2023-03-17T12:38:50.793Z,101388.59
2023-03-17T12:44:05.053Z,101384.09
2023-03-17T12:49:33.077Z,101388.31
2023-03-17T12:54:40.769Z,101380.94
2023-03-17T12:59:49.309Z,101382.85
2023-03-17T13:05:04.604Z,101372.11
2023-03-17T13:10:19.921Z,101371.66
2023-03-17T13:15:50.784Z,101362.59
2023-03-17T13:21:12.902Z,101360.35
2023-03-17T13:26:22.251Z,101356.19
2023-03-17T13:31:36.583Z,101349.92
2023-03-17T13:37:01.533Z,101342.46
2023-03-17T13:42:20.862Z,101341.16
2023-03-17T13:47:35.494Z,101323.48
2023-03-17T13:52:46.516Z,101324.64
2023-03-17T13:58:16.054Z,101334.11
2023-03-17T14:03:29.512Z,101332.13
2023-03-17T14:08:37.228Z,101327.11
2023-03-17T14:13:53.862Z,101316.99
2023-03-17T14:19:11.742Z,101308.23
2023-03-17T14:24:22.940Z,101297.48
2023-03-17T14:29:29.558Z,101294.77
2023-03-17T14:34:42.061Z,101287.94
2023-03-17T14:39:59.556Z,101292.04
2023-03-17T14:50:26.504Z,101281.09
2023-03-17T14:55:43.339Z,101273.88
2023-03-17T15:00:57.069Z,101275.65
2023-03-17T15:06:21.419Z,101282.34
2023-03-17T15:11:35.911Z,101269.45
2023-03-17T15:16:45.317Z,101262.79
2023-03-17T15:21:51.319Z,101267.80
2023-03-17T15:27:06.290Z,101258.31
2023-03-17T15:32:15.738Z,101247.92
2023-03-17T15:37:23.044Z,101251.46
2023-03-17T15:42:34.167Z,101255.25
2023-03-17T15:47:41.949Z,101254.86
2023-03-17T15:52:47.779Z,101258.77
2023-03-17T15:57:55.550Z,101258.53
2023-03-17T16:03:06.615Z,101266.63
2023-03-17T16:08:14.033Z,101263.56
2023-03-17T16:13:21.254Z,101263.98
2023-03-17T16:18:34.373Z,101270.27
2023-03-17T16:23:39.880Z,101275.85
2023-03-17T16:28:47.658Z,101275.88
2023-03-17T16:33:54.280Z,101270.33
2023-03-17T16:39:00.066Z,101273.63
2023-03-17T16:44:07.606Z,101274.64
2023-03-17T16:49:15.676Z,101274.63
2023-03-17T16:54:20.997Z,101274.60
2023-03-17T16:59:31.349Z,101279.23
2023-03-17T17:04:38.446Z,101285.92
2023-03-17T17:09:43.917Z,101297.25
2023-03-17T17:14:49.318Z,101294.40
2023-03-17T17:19:54.654Z,101290.52
2023-03-17T17:25:00.113Z,101289.55
2023-03-17T17:30:08.075Z,101280.85
2023-03-17T17:35:14.741Z,101280.98
2023-03-17T17:40:22.173Z,101282.96
2023-03-17T17:45:27.780Z,101285.64
2023-03-17T17:50:34.618Z,101293.48
2023-03-17T17:55:41.574Z,101298.44
2023-03-17T18:00:47.718Z,101293.16
2023-03-17T18:05:54.053Z,101290.13
2023-03-17T18:10:59.395Z,101296.41
2023-03-17T18:16:09.744Z,101292.70
2023-03-17T18:21:15.980Z,101284.86
2023-03-17T18:26:22.340Z,101285.31
2023-03-17T18:31:34.909Z,101291.29
2023-03-17T18:36:41.128Z,101289.05
2023-03-17T18:41:48.408Z,101284.14
2023-03-17T18:46:54.107Z,101287.58
2023-03-17T18:51:59.894Z,101290.48
2023-03-17T18:57:05.701Z,101291.48
2023-03-17T19:02:11.654Z,101290.59
2023-03-17T19:07:18.037Z,101297.42
2023-03-17T19:12:23.879Z,101296.29
2023-03-17T19:17:29.444Z,101285.87
2023-03-17T19:22:35.683Z,101280.08
2023-03-17T19:27:41.696Z,101279.02
2023-03-17T19:32:47.256Z,101279.70
2023-03-17T19:37:52.710Z,101272.80
2023-03-17T19:42:59.192Z,101274.86
2023-03-17T19:48:05.036Z,101271.89
2023-03-17T19:53:10.660Z,101271.38
2023-03-17T19:58:16.235Z,101275.35
2023-03-17T20:03:23.146Z,101274.68
2023-03-17T20:08:29.799Z,101277.42
2023-03-17T20:13:36.424Z,101274.32
2023-03-17T20:18:41.815Z,101264.65
2023-03-17T20:23:47.401Z,101263.41
2023-03-17T20:28:53.995Z,101261.84
2023-03-17T20:33:59.570Z,101258.90
2023-03-17T20:39:05.889Z,101258.73
2023-03-17T20:44:12.214Z,101259.06
2023-03-17T20:49:17.817Z,101254.89
2023-03-17T20:54:23.303Z,101250.00
2023-03-17T20:59:29.248Z,101252.66
2023-03-17T21:04:34.686Z,101249.33
2023-03-17T21:09:41.367Z,101248.27
2023-03-17T21:14:50.674Z,101245.63
2023-03-17T21:19:57.290Z,101238.67
2023-03-17T21:25:03.495Z,101245.02
2023-03-17T21:30:12.381Z,101242.98
2023-03-17T21:35:18.141Z,101238.50
2023-03-17T21:40:26.209Z,101237.77
2023-03-17T21:45:31.906Z,101237.77
2023-03-17T21:50:38.607Z,101245.81
2023-03-17T21:55:45.379Z,101248.39
2023-03-17T22:00:51.481Z,101252.13
2023-03-17T22:05:58.775Z,101255.39
2023-03-17T22:11:08.454Z,101260.23
2023-03-17T22:16:15.400Z,101260.11
2023-03-17T22:21:21.698Z,101254.65
2023-03-17T22:26:28.476Z,101246.38
2023-03-17T22:31:35.411Z,101241.41
2023-03-17T22:36:41.618Z,101235.40
2023-03-17T22:41:47.356Z,101237.67
2023-03-17T22:46:52.960Z,101237.12
2023-03-17T22:51:58.426Z,101235.04
2023-03-17T22:57:05.585Z,101233.16
2023-03-17T23:02:11.425Z,101231.11
2023-03-17T23:07:17.300Z,101230.91
2023-03-17T23:12:24.548Z,101228.81
2023-03-17T23:17:29.861Z,101221.75
2023-03-17T23:22:35.298Z,101213.45
2023-03-17T23:27:40.859Z,101212.24
2023-03-17T23:32:47.094Z,101210.85
2023-03-17T23:37:52.637Z,101208.96
2023-03-17T23:42:58.262Z,101202.45
2023-03-17T23:48:03.987Z,101198.46
2023-03-17T23:53:09.739Z,101198.30
2023-03-17T23:58:15.660Z,101199.98
